Terminal Aerodrome Forecast
Issued by NWS Knoxville/Tri Cities, TN

Home | Current Version | Previous Version | Text Only | Print | Product List | Glossary On
Versions: 1 2 3 4 5 6 7 8 9 10 11 12 13 14 15 16 17 18 19 20 21 22 23 24 25 26
000
FTUS44 KMRX 182338
TAFTYS
TAF
KTYS 182338Z 1900/1924 18014G24KT P6SM SCT060 OVC250
     FM190600 18016G26KT 6SM -SHRA BKN060
     FM191000 19014KT 5SM SHRA VCTS OVC030CB
     FM191200 21015KT 6SM -SHRA OVC015
     FM191600 24010G18KT P6SM VCSH OVC015
     FM192000 18010KT 6SM -RA OVC015=

USA.gov is the U.S. government's official web portal to all federal, state and local government web resources and services.